Time;durP1;ratioP1;P1;durP2;ratioP2;P2;SDS_P1;SDS_P2;PMS_P1;PMS_P2;Temp;Humidity;BMP_temperature;BMP_pressure;BME280_temperature;BME280_humidity;BME280_pressure;Samples;Min_cycle;Max_cycle;Signal;HPM_P1;HPM_P2
2023/01/08 00:02:09;;;;;;;3.35;2.80;;;9.80;99.90;;;;;;5135741;27;20400;-63
2023/01/08 00:04:34;;;;;;;4.45;2.97;;;9.80;99.90;;;;;;5135644;27;20106;-63
2023/01/08 00:07:00;;;;;;;4.30;2.47;;;9.80;99.90;;;;;;5135675;27;20110;-63
2023/01/08 00:09:25;;;;;;;3.38;2.72;;;9.80;99.90;;;;;;5135664;27;20476;-62
2023/01/08 00:11:51;;;;;;;4.68;2.80;;;9.90;99.90;;;;;;5136109;27;20031;-62
2023/01/08 00:14:17;;;;;;;6.32;2.63;;;9.90;99.90;;;;;;5135565;27;20408;-63
2023/01/08 00:16:42;;;;;;;3.50;2.78;;;9.80;99.90;;;;;;5135734;27;20050;-62
2023/01/08 00:19:13;;;;;;;4.10;2.60;;;9.90;99.90;;;;;;5135795;27;20050;-63
2023/01/08 00:21:38;;;;;;;6.07;2.78;;;10.00;99.90;;;;;;5135474;27;20122;-62
2023/01/08 00:24:04;;;;;;;4.03;2.75;;;10.00;99.90;;;;;;5135581;27;20118;-63
2023/01/08 00:26:30;;;;;;;4.25;2.90;;;10.00;99.90;;;;;;5135740;27;20795;-62
2023/01/08 00:28:56;;;;;;;4.40;3.00;;;10.00;99.90;;;;;;5135604;27;20042;-63
2023/01/08 00:31:22;;;;;;;4.60;3.03;;;10.00;99.90;;;;;;5135332;27;20035;-63
2023/01/08 00:33:47;;;;;;;4.47;2.90;;;10.00;99.90;;;;;;5135343;27;20039;-62
2023/01/08 00:36:15;;;;;;;5.80;3.15;;;10.00;99.90;;;;;;5135168;27;20070;-62
2023/01/08 00:38:42;;;;;;;4.28;2.80;;;10.10;99.90;;;;;;5135319;27;20042;-62
2023/01/08 00:41:08;;;;;;;6.10;2.72;;;10.10;99.90;;;;;;5135278;27;20035;-64
2023/01/08 00:43:34;;;;;;;5.70;2.65;;;10.00;99.90;;;;;;5135157;27;20031;-63
2023/01/08 00:46:00;;;;;;;2.85;2.28;;;10.00;99.90;;;;;;5135055;27;20092;-63
2023/01/08 00:48:25;;;;;;;5.93;2.50;;;10.00;99.90;;;;;;5134670;27;20104;-64
2023/01/08 00:50:52;;;;;;;3.13;2.50;;;10.00;99.90;;;;;;5135051;27;20035;-63
2023/01/08 00:53:19;;;;;;;4.00;2.42;;;10.00;99.90;;;;;;5135065;27;20087;-63
2023/01/08 00:55:45;;;;;;;8.60;2.45;;;10.00;99.90;;;;;;5135178;27;20042;-62
2023/01/08 00:58:11;;;;;;;4.47;2.70;;;9.90;99.90;;;;;;5134798;27;20043;-62
2023/01/08 01:00:37;;;;;;;3.45;2.80;;;10.00;99.90;;;;;;5134629;27;20039;-63
2023/01/08 01:03:03;;;;;;;3.17;2.50;;;9.90;99.90;;;;;;5134619;27;20039;-63
2023/01/08 01:05:29;;;;;;;6.57;3.00;;;9.90;99.90;;;;;;5134883;27;20160;-62
2023/01/08 01:07:55;;;;;;;4.53;2.67;;;9.90;99.90;;;;;;5134655;27;20067;-63
2023/01/08 01:10:22;;;;;;;6.90;3.10;;;9.90;99.90;;;;;;5116508;27;20039;-62
2023/01/08 01:12:48;;;;;;;3.67;2.47;;;9.90;99.90;;;;;;5134553;27;20131;-63
2023/01/08 01:15:16;;;;;;;4.85;2.45;;;9.80;99.90;;;;;;5134024;27;20077;-63
2023/01/08 01:17:43;;;;;;;4.90;2.53;;;9.80;99.90;;;;;;5134472;27;20079;-63
2023/01/08 01:20:13;;;;;;;5.07;2.13;;;9.90;99.90;;;;;;5134401;27;20047;-62
2023/01/08 01:22:38;;;;;;;4.22;2.30;;;9.90;99.90;;;;;;5134330;27;20077;-63
2023/01/08 01:25:05;;;;;;;3.92;2.05;;;10.00;99.90;;;;;;5134400;27;20389;-63
2023/01/08 01:27:31;;;;;;;3.88;2.05;;;9.90;99.90;;;;;;5134156;27;20087;-62
2023/01/08 01:29:57;;;;;;;5.10;2.35;;;10.00;99.90;;;;;;5134194;27;20431;-62
2023/01/08 01:32:22;;;;;;;4.47;2.05;;;9.90;99.90;;;;;;5134411;27;20031;-62
2023/01/08 01:34:48;;;;;;;3.83;1.80;;;9.90;99.90;;;;;;5133823;27;20378;-62
2023/01/08 01:37:14;;;;;;;2.58;1.90;;;9.90;99.90;;;;;;5134174;27;20039;-62
2023/01/08 01:39:45;;;;;;;3.42;2.08;;;9.90;99.90;;;;;;5134428;27;20460;-62
2023/01/08 01:45:22;;;;;;;4.38;2.40;;;9.90;99.90;;;;;;5133833;27;20362;-63
2023/01/08 01:48:05;;;;;;;4.30;2.40;;;9.90;99.90;;;;;;5115216;27;20374;-62
2023/01/08 01:50:41;;;;;;;5.40;2.90;;;9.90;99.90;;;;;;5133770;27;20039;-62
2023/01/08 01:53:33;;;;;;;3.47;2.15;;;9.80;99.90;;;;;;5133933;27;20035;-63
2023/01/08 01:56:00;;;;;;;3.40;2.08;;;9.80;99.90;;;;;;5133726;27;20056;-62
2023/01/08 01:58:28;;;;;;;3.92;2.40;;;9.80;99.90;;;;;;5133699;27;20042;-62
2023/01/08 02:00:56;;;;;;;2.97;2.58;;;9.90;99.90;;;;;;5133582;27;20042;-62
2023/01/08 02:03:29;;;;;;;5.65;3.13;;;9.70;99.90;;;;;;5133763;27;20035;-62
2023/01/08 02:06:13;;;;;;;4.55;2.50;;;9.70;99.90;;;;;;5115447;27;20050;-62
2023/01/08 02:08:47;;;;;;;5.45;2.38;;;9.70;99.90;;;;;;5133609;27;20039;-62
2023/01/08 02:11:29;;;;;;;5.45;2.25;;;9.70;99.90;;;;;;5133549;27;20091;-62
2023/01/08 02:14:03;;;;;;;5.43;2.40;;;9.70;99.90;;;;;;5133684;27;20380;-62
2023/01/08 02:16:52;;;;;;;3.67;1.83;;;9.60;99.90;;;;;;5133316;27;20380;-63
2023/01/08 02:19:34;;;;;;;6.95;2.08;;;9.60;99.90;;;;;;5133298;27;20047;-62
2023/01/08 02:22:46;;;;;;;4.75;1.98;;;9.60;99.90;;;;;;5133657;27;20074;-63
2023/01/08 02:25:39;;;;;;;4.15;1.60;;;9.50;99.90;;;;;;5030118;28;20608;-62
2023/01/08 02:28:10;;;;;;;4.50;1.65;;;9.50;99.90;;;;;;5029275;28;20045;-62
2023/01/08 02:30:36;;;;;;;6.57;1.58;;;9.50;99.90;;;;;;5029997;28;20077;-63
2023/01/08 02:33:02;;;;;;;4.50;2.00;;;9.50;99.90;;;;;;5029794;28;20064;-63
2023/01/08 02:35:44;;;;;;;7.25;2.00;;;9.40;99.90;;;;;;5029696;28;20239;-63
2023/01/08 02:38:13;;;;;;;6.15;1.95;;;9.40;99.90;;;;;;5029942;28;20116;-62
2023/01/08 02:40:51;;;;;;;6.43;2.15;;;9.30;99.90;;;;;;5029779;28;20480;-62
2023/01/08 02:43:25;;;;;;;10.10;1.58;;;9.30;99.90;;;;;;5029692;28;20066;-62
2023/01/08 02:45:55;;;;;;;10.82;1.73;;;9.30;99.90;;;;;;5029733;28;20053;-62
2023/01/08 02:48:36;;;;;;;8.00;2.00;;;9.20;99.90;;;;;;5029573;28;20062;-63
2023/01/08 02:51:16;;;;;;;6.90;2.08;;;9.20;99.90;;;;;;5029786;28;20061;-63
2023/01/08 02:53:45;;;;;;;11.35;2.45;;;9.10;99.90;;;;;;5013222;28;20053;-62
2023/01/08 02:56:18;;;;;;;10.88;1.92;;;9.20;99.90;;;;;;5029650;28;20505;-62
2023/01/08 02:58:46;;;;;;;13.05;2.00;;;9.10;99.90;;;;;;5029902;28;20124;-63
2023/01/08 03:01:15;;;;;;;9.25;2.85;;;9.10;99.90;;;;;;5062620;28;20062;-62
2023/01/08 03:03:44;;;;;;;8.10;2.05;;;9.10;99.90;;;;;;5133167;28;20035;-62
2023/01/08 03:06:13;;;;;;;10.25;1.90;;;9.00;99.90;;;;;;5132895;28;20389;-62
2023/01/08 03:08:42;;;;;;;9.40;3.08;;;9.00;99.90;;;;;;5132483;28;20118;-62
2023/01/08 03:11:13;;;;;;;10.80;2.40;;;9.00;99.90;;;;;;5132907;28;20043;-62
2023/01/08 03:13:44;;;;;;;9.45;2.30;;;8.90;99.90;;;;;;5132553;28;20429;-62
2023/01/08 03:16:15;;;;;;;11.70;2.22;;;8.90;99.90;;;;;;5114313;28;20039;-62
2023/01/08 03:18:48;;;;;;;11.25;1.98;;;8.90;99.90;;;;;;5133028;28;20476;-62
2023/01/08 03:21:17;;;;;;;8.35;2.55;;;8.90;99.90;;;;;;5132825;28;20087;-63
2023/01/08 03:23:45;;;;;;;12.25;2.10;;;8.90;99.90;;;;;;5132831;28;20073;-62
2023/01/08 03:26:17;;;;;;;11.45;1.80;;;8.90;99.90;;;;;;5132812;28;20362;-62
2023/01/08 03:28:48;;;;;;;10.82;1.70;;;8.80;99.90;;;;;;5132534;28;20095;-63
2023/01/08 03:31:16;;;;;;;9.65;2.35;;;8.70;99.90;;;;;;5132519;28;20481;-62
2023/01/08 03:33:44;;;;;;;14.45;2.67;;;8.80;99.90;;;;;;5114625;28;20123;-63
2023/01/08 03:36:17;;;;;;;10.10;2.22;;;8.80;99.90;;;;;;5132632;28;20055;-62
2023/01/08 03:38:50;;;;;;;14.75;2.33;;;8.80;99.90;;;;;;5134761;27;20054;-62
2023/01/08 03:41:21;;;;;;;15.75;2.30;;;8.70;99.90;;;;;;5136477;27;20035;-62
2023/01/08 03:43:47;;;;;;;6.72;2.60;;;8.70;99.90;;;;;;5117900;27;20043;-63
2023/01/08 03:46:24;;;;;;;9.82;2.33;;;8.70;99.90;;;;;;5136325;27;20389;-62
2023/01/08 03:48:50;;;;;;;9.90;2.00;;;8.70;99.90;;;;;;5136316;27;20047;-62
2023/01/08 03:51:17;;;;;;;13.73;2.60;;;8.80;99.90;;;;;;5136202;27;20039;-62
2023/01/08 03:53:43;;;;;;;10.63;2.08;;;8.70;99.90;;;;;;5136322;27;20043;-61
2023/01/08 03:56:09;;;;;;;11.77;2.33;;;8.70;99.90;;;;;;5117754;27;20039;-63
2023/01/08 03:58:34;;;;;;;8.45;1.92;;;8.70;99.90;;;;;;5135826;27;20039;-62
2023/01/08 04:01:00;;;;;;;9.65;1.83;;;8.60;99.90;;;;;;5136016;27;20384;-62
2023/01/08 04:03:25;;;;;;;9.18;2.05;;;8.60;99.90;;;;;;5136179;27;20085;-62
2023/01/08 04:05:51;;;;;;;4.93;1.98;;;8.60;99.90;;;;;;5135670;27;20485;-63
2023/01/08 04:08:17;;;;;;;8.18;2.00;;;8.60;99.90;;;;;;5135814;27;20123;-63
2023/01/08 04:10:42;;;;;;;10.68;2.25;;;8.50;99.90;;;;;;5135652;27;20042;-62
2023/01/08 04:13:08;;;;;;;9.20;1.98;;;8.50;99.90;;;;;;5135549;27;20370;-62
2023/01/08 04:15:33;;;;;;;10.98;1.95;;;8.50;99.90;;;;;;5117260;27;20031;-63
2023/01/08 04:17:59;;;;;;;7.88;2.55;;;8.50;99.90;;;;;;5135713;27;20047;-62
2023/01/08 04:20:25;;;;;;;8.43;2.00;;;8.40;99.90;;;;;;5135316;27;20385;-62
2023/01/08 04:22:50;;;;;;;12.80;2.35;;;8.40;99.90;;;;;;5135532;27;20072;-62
2023/01/08 04:25:16;;;;;;;6.00;1.95;;;8.40;99.90;;;;;;5135823;27;20114;-62
2023/01/08 04:27:41;;;;;;;9.35;2.35;;;8.40;99.90;;;;;;5135540;27;20469;-62
2023/01/08 04:30:08;;;;;;;10.48;2.00;;;8.40;99.90;;;;;;5135501;27;20031;-62
2023/01/08 04:32:33;;;;;;;13.02;2.15;;;8.30;99.90;;;;;;5135380;27;20538;-62
2023/01/08 04:34:59;;;;;;;5.50;2.38;;;8.30;99.90;;;;;;5135457;27;20051;-62
2023/01/08 04:37:25;;;;;;;10.38;2.75;;;8.30;99.90;;;;;;5135331;27;20058;-62
2023/01/08 04:39:51;;;;;;;11.82;2.15;;;8.30;99.90;;;;;;5135173;27;20520;-62
2023/01/08 04:42:16;;;;;;;15.00;2.65;;;8.40;99.90;;;;;;5135099;27;20542;-62
2023/01/08 04:44:42;;;;;;;8.70;2.40;;;8.30;99.90;;;;;;5134998;27;20071;-62
2023/01/08 04:47:07;;;;;;;9.45;3.15;;;8.30;99.90;;;;;;5135192;27;20051;-62
2023/01/08 04:49:33;;;;;;;8.27;2.72;;;8.30;99.90;;;;;;5134166;27;20119;-62
2023/01/08 04:51:59;;;;;;;9.18;2.40;;;8.30;99.90;;;;;;5134859;27;20071;-63
2023/01/08 04:54:24;;;;;;;9.60;2.45;;;8.40;99.90;;;;;;5134732;27;20533;-62
2023/01/08 04:56:50;;;;;;;7.78;2.38;;;8.40;99.90;;;;;;5134604;27;20118;-62
2023/01/08 04:59:16;;;;;;;5.97;2.35;;;8.40;99.90;;;;;;5135033;27;20435;-62
2023/01/08 05:01:42;;;;;;;6.68;2.40;;;8.40;99.90;;;;;;5134773;27;20051;-62
2023/01/08 05:04:09;;;;;;;5.05;2.47;;;8.30;99.90;;;;;;5135003;27;20047;-62
2023/01/08 05:06:35;;;;;;;8.25;2.53;;;8.40;99.90;;;;;;5134445;27;20039;-63
2023/01/08 05:09:02;;;;;;;7.07;2.60;;;8.40;99.90;;;;;;5134747;27;20090;-62
2023/01/08 05:11:27;;;;;;;6.18;2.80;;;8.40;99.90;;;;;;5116201;27;20084;-62
2023/01/08 05:13:53;;;;;;;8.55;2.50;;;8.40;99.90;;;;;;5134657;27;20035;-63
2023/01/08 05:16:19;;;;;;;8.15;2.45;;;8.40;99.90;;;;;;5134751;27;20083;-62
2023/01/08 05:18:45;;;;;;;8.93;2.67;;;8.30;99.90;;;;;;5134555;27;20568;-63
2023/01/08 05:21:12;;;;;;;4.22;2.40;;;8.30;99.90;;;;;;5134328;27;20154;-62
2023/01/08 05:23:38;;;;;;;6.45;2.60;;;8.40;99.90;;;;;;5134356;27;20050;-63
2023/01/08 05:26:05;;;;;;;5.90;2.97;;;8.40;99.90;;;;;;5134172;27;20068;-62
2023/01/08 05:28:31;;;;;;;7.47;2.50;;;8.30;99.90;;;;;;5134132;27;20051;-62
2023/01/08 05:30:57;;;;;;;5.47;2.38;;;8.30;99.90;;;;;;5134202;27;20086;-62
2023/01/08 05:33:23;;;;;;;6.85;2.92;;;8.40;99.90;;;;;;5134363;27;20046;-63
2023/01/08 05:35:49;;;;;;;7.07;2.75;;;8.40;99.90;;;;;;5133932;27;20054;-62
2023/01/08 05:38:15;;;;;;;7.90;2.88;;;8.40;99.90;;;;;;5134226;27;20039;-62
2023/01/08 05:40:40;;;;;;;5.65;2.45;;;8.50;99.90;;;;;;5133828;27;20389;-62
2023/01/08 05:43:06;;;;;;;5.38;2.90;;;8.50;99.90;;;;;;5133963;27;20578;-62
2023/01/08 05:45:33;;;;;;;5.78;2.45;;;8.50;99.90;;;;;;5133933;27;20442;-62
2023/01/08 05:47:58;;;;;;;6.90;2.90;;;8.50;99.90;;;;;;5115456;27;20043;-63
2023/01/08 05:50:24;;;;;;;5.90;2.17;;;8.50;99.90;;;;;;5133677;27;20035;-62
2023/01/08 05:52:50;;;;;;;7.70;2.35;;;8.50;99.90;;;;;;5133982;27;20031;-62
2023/01/08 05:55:15;;;;;;;7.30;2.38;;;8.50;99.90;;;;;;5133391;27;20043;-62
2023/01/08 05:57:41;;;;;;;5.50;2.50;;;8.50;99.90;;;;;;5133555;27;20071;-62
2023/01/08 06:00:08;;;;;;;6.78;2.08;;;8.50;99.90;;;;;;5133481;27;20078;-63
2023/01/08 06:02:34;;;;;;;7.57;2.05;;;8.50;99.90;;;;;;5133269;27;20039;-62
2023/01/08 06:05:00;;;;;;;6.40;2.35;;;8.60;99.90;;;;;;5115505;27;20088;-62
2023/01/08 06:07:28;;;;;;;5.40;2.10;;;8.50;99.90;;;;;;5133260;27;20031;-62
2023/01/08 06:09:54;;;;;;;9.60;2.15;;;8.50;99.90;;;;;;5133186;27;20039;-63
2023/01/08 06:12:19;;;;;;;8.55;2.53;;;8.50;99.90;;;;;;5133553;27;20469;-63
2023/01/08 06:14:45;;;;;;;4.65;1.92;;;8.50;99.90;;;;;;5133621;27;20095;-62
2023/01/08 06:17:11;;;;;;;4.95;2.05;;;8.40;99.90;;;;;;5133481;27;20042;-62
2023/01/08 06:19:38;;;;;;;5.55;1.73;;;8.50;99.90;;;;;;5133145;27;20065;-62
2023/01/08 06:22:04;;;;;;;4.35;1.70;;;8.40;99.90;;;;;;5114857;27;20126;-62
2023/01/08 06:24:30;;;;;;;4.93;1.80;;;8.40;99.90;;;;;;5133133;27;20550;-62
2023/01/08 06:26:56;;;;;;;5.68;1.70;;;8.50;99.90;;;;;;5115164;27;20045;-62
2023/01/08 06:29:21;;;;;;;5.30;1.95;;;8.40;99.90;;;;;;5133556;27;20035;-62
2023/01/08 06:31:47;;;;;;;3.78;1.42;;;8.40;99.90;;;;;;5133195;27;20039;-62
2023/01/08 06:34:12;;;;;;;7.13;1.92;;;8.40;99.90;;;;;;5133264;27;20038;-62
2023/01/08 06:36:38;;;;;;;6.43;2.08;;;8.50;99.90;;;;;;5132228;27;20047;-63
2023/01/08 06:39:05;;;;;;;5.72;1.50;;;8.50;99.90;;;;;;5132694;27;20050;-63
2023/01/08 06:41:31;;;;;;;7.88;1.70;;;8.50;99.90;;;;;;5132430;27;20035;-62
2023/01/08 06:43:56;;;;;;;6.55;1.95;;;8.50;99.90;;;;;;5132920;28;20044;-62
2023/01/08 06:46:22;;;;;;;3.75;1.70;;;8.50;99.90;;;;;;5132919;28;20043;-62
2023/01/08 06:48:48;;;;;;;4.70;1.80;;;8.50;99.90;;;;;;5132712;28;20505;-62
2023/01/08 06:51:13;;;;;;;5.82;2.20;;;8.50;99.90;;;;;;5132964;28;20393;-63
2023/01/08 06:53:39;;;;;;;5.22;2.28;;;8.40;99.90;;;;;;5132733;28;20039;-62
2023/01/08 06:56:08;;;;;;;6.03;2.40;;;8.40;99.90;;;;;;5133213;28;20083;-62
2023/01/08 06:58:33;;;;;;;4.75;1.73;;;8.40;99.90;;;;;;5132940;28;20043;-62
2023/01/08 07:00:59;;;;;;;5.00;2.78;;;8.30;99.90;;;;;;5132844;28;20050;-62
2023/01/08 07:03:26;;;;;;;4.32;2.35;;;8.30;99.90;;;;;;5132960;28;20047;-62
2023/01/08 07:05:51;;;;;;;4.95;2.50;;;8.30;99.90;;;;;;5133045;28;20059;-62
2023/01/08 07:08:17;;;;;;;6.53;1.90;;;8.30;99.90;;;;;;5132773;28;20500;-62
2023/01/08 07:10:43;;;;;;;3.78;2.40;;;8.30;99.90;;;;;;5132979;28;20093;-62
2023/01/08 07:13:11;;;;;;;5.47;2.22;;;8.30;99.90;;;;;;5133934;27;20035;-62
2023/01/08 07:15:37;;;;;;;5.28;2.33;;;8.20;99.90;;;;;;5136921;27;20075;-62
2023/01/08 07:18:04;;;;;;;4.20;2.10;;;8.20;99.90;;;;;;5136669;27;20118;-62
2023/01/08 07:20:34;;;;;;;7.00;2.78;;;8.20;99.90;;;;;;5136458;27;20031;-62
2023/01/08 07:23:01;;;;;;;9.80;2.88;;;8.20;99.90;;;;;;5136827;27;20820;-62
2023/01/08 07:25:27;;;;;;;5.53;2.88;;;8.20;99.90;;;;;;5136925;27;20047;-62
2023/01/08 07:27:53;;;;;;;14.68;2.90;;;8.20;99.90;;;;;;5137357;27;20045;-62
2023/01/08 07:30:18;;;;;;;5.70;2.88;;;8.20;99.90;;;;;;5136657;27;20533;-62
2023/01/08 07:32:44;;;;;;;7.25;2.47;;;8.20;99.90;;;;;;5136875;27;20035;-62
2023/01/08 07:35:09;;;;;;;9.32;2.58;;;8.10;99.90;;;;;;5136558;27;20108;-62
2023/01/08 07:37:39;;;;;;;10.68;2.58;;;8.00;99.90;;;;;;5136732;27;20048;-62
2023/01/08 07:40:05;;;;;;;6.35;2.20;;;8.00;99.90;;;;;;5136606;27;20397;-63
2023/01/08 07:42:31;;;;;;;7.00;2.00;;;8.00;99.90;;;;;;5136271;27;20035;-62
2023/01/08 07:44:57;;;;;;;5.18;2.05;;;8.00;99.90;;;;;;5118045;27;20039;-62
2023/01/08 07:47:22;;;;;;;6.40;2.13;;;8.00;99.90;;;;;;5136344;27;20039;-62
2023/01/08 07:49:48;;;;;;;4.93;1.88;;;8.00;99.90;;;;;;5136062;27;20374;-62
2023/01/08 07:52:13;;;;;;;8.23;2.10;;;7.90;99.90;;;;;;5117846;27;20031;-62
2023/01/08 07:54:39;;;;;;;6.78;2.13;;;7.90;99.90;;;;;;5136497;27;20039;-63
2023/01/08 07:57:05;;;;;;;5.35;2.38;;;7.90;99.90;;;;;;5136021;27;20035;-62
2023/01/08 07:59:30;;;;;;;8.73;2.95;;;7.90;99.90;;;;;;5136025;27;20035;-63
2023/01/08 08:01:56;;;;;;;4.53;2.15;;;7.90;99.90;;;;;;5136095;27;20043;-63
2023/01/08 08:04:23;;;;;;;11.65;2.75;;;7.90;99.90;;;;;;5135972;27;20067;-61
2023/01/08 08:06:49;;;;;;;6.80;3.28;;;7.80;99.90;;;;;;5117140;27;20448;-62
2023/01/08 08:09:14;;;;;;;10.20;3.03;;;7.90;99.90;;;;;;5135539;27;20078;-63
2023/01/08 08:11:41;;;;;;;9.82;3.38;;;7.90;99.90;;;;;;5135311;27;20114;-62
2023/01/08 08:14:06;;;;;;;9.50;4.00;;;7.90;99.90;;;;;;5135557;27;20039;-63
2023/01/08 08:16:32;;;;;;;8.02;3.17;;;7.80;99.90;;;;;;5135543;27;20104;-62
2023/01/08 08:18:59;;;;;;;7.95;3.75;;;7.80;99.90;;;;;;5135269;27;20054;-62
2023/01/08 08:21:24;;;;;;;8.45;3.22;;;7.80;99.90;;;;;;5135385;27;20050;-62
2023/01/08 08:23:50;;;;;;;8.63;3.00;;;7.80;99.90;;;;;;5135279;27;20047;-63
2023/01/08 08:26:16;;;;;;;9.07;3.00;;;7.80;99.90;;;;;;5116941;27;20073;-63
2023/01/08 08:28:42;;;;;;;10.40;3.60;;;7.80;99.90;;;;;;5135009;27;20035;-62
2023/01/08 08:31:08;;;;;;;6.32;3.13;;;7.90;99.90;;;;;;5135120;27;20123;-61
2023/01/08 08:33:33;;;;;;;14.07;3.85;;;7.70;99.90;;;;;;5134994;27;20038;-62
2023/01/08 08:35:59;;;;;;;7.07;2.45;;;7.80;99.90;;;;;;5115958;27;20047;-61
2023/01/08 08:38:25;;;;;;;8.98;2.60;;;7.80;99.90;;;;;;5134224;27;20084;-61
2023/01/08 08:40:51;;;;;;;12.68;2.72;;;7.80;99.90;;;;;;5134996;27;20074;-62
2023/01/08 08:43:17;;;;;;;12.05;2.58;;;7.90;99.90;;;;;;5116636;27;20475;-63
2023/01/08 08:45:43;;;;;;;6.25;2.20;;;7.90;99.90;;;;;;5134616;27;20031;-62
2023/01/08 08:48:10;;;;;;;6.05;2.03;;;7.90;99.90;;;;;;5135110;27;20040;-62
2023/01/08 08:50:36;;;;;;;10.43;3.22;;;8.00;99.90;;;;;;5134769;27;20389;-63
2023/01/08 08:53:03;;;;;;;10.13;2.53;;;8.00;99.90;;;;;;5134772;27;20038;-63
2023/01/08 08:55:30;;;;;;;7.82;2.50;;;8.00;99.90;;;;;;5134748;27;20045;-62
2023/01/08 08:58:03;;;;;;;8.40;2.47;;;8.00;99.90;;;;;;5116301;27;20088;-62
2023/01/08 09:00:28;;;;;;;9.18;2.65;;;8.10;99.90;;;;;;5134363;27;20031;-62
2023/01/08 09:02:54;;;;;;;9.50;2.13;;;8.20;99.90;;;;;;5134542;27;20041;-62
2023/01/08 09:05:20;;;;;;;8.52;1.90;;;8.20;99.90;;;;;;5134621;27;20122;-61
2023/01/08 09:07:45;;;;;;;6.60;2.83;;;8.20;99.90;;;;;;5134164;27;20031;-62
2023/01/08 09:10:11;;;;;;;7.50;2.35;;;8.20;99.90;;;;;;5134287;27;20454;-61
2023/01/08 09:12:36;;;;;;;7.38;1.98;;;8.20;99.90;;;;;;5116012;27;20088;-62
2023/01/08 09:15:02;;;;;;;7.10;2.63;;;8.30;99.90;;;;;;5134126;27;20035;-62
2023/01/08 09:17:28;;;;;;;7.28;2.25;;;8.20;99.90;;;;;;5134261;27;20111;-62
2023/01/08 09:19:54;;;;;;;10.88;2.20;;;8.30;99.90;;;;;;5134503;27;20789;-63
2023/01/08 09:22:19;;;;;;;6.68;1.95;;;8.30;99.90;;;;;;5134518;27;20147;-62
2023/01/08 09:24:45;;;;;;;9.23;1.90;;;8.30;99.90;;;;;;5134042;27;20039;-63
2023/01/08 09:27:11;;;;;;;8.13;2.08;;;8.40;99.90;;;;;;5115504;27;20087;-62
2023/01/08 09:29:36;;;;;;;3.95;1.67;;;8.40;99.90;;;;;;5133955;27;20043;-63
2023/01/08 09:32:06;;;;;;;5.90;2.00;;;8.50;99.90;;;;;;5115521;27;20128;-63
2023/01/08 09:34:32;;;;;;;5.10;1.83;;;8.50;99.90;;;;;;5133855;27;20035;-62
2023/01/08 09:36:58;;;;;;;6.60;2.00;;;8.50;99.90;;;;;;5133087;27;20569;-62
2023/01/08 09:39:23;;;;;;;5.85;1.77;;;8.60;99.90;;;;;;5133838;27;20118;-63
2023/01/08 09:41:50;;;;;;;7.90;2.08;;;8.60;99.90;;;;;;5134045;27;20362;-62
2023/01/08 09:44:21;;;;;;;9.88;2.25;;;8.60;99.90;;;;;;5133680;27;20437;-62
2023/01/08 09:46:48;;;;;;;7.25;1.70;;;8.70;99.90;;;;;;5133880;27;20038;-62
2023/01/08 09:49:25;;;;;;;8.27;1.95;;;8.70;99.90;;;;;;5133909;27;20043;-61
2023/01/08 09:51:51;;;;;;;9.10;1.58;;;8.70;99.90;;;;;;5133440;27;20043;-62
2023/01/08 09:54:17;;;;;;;5.20;1.77;;;8.70;99.90;;;;;;5133574;27;20035;-61
2023/01/08 09:56:43;;;;;;;7.55;1.85;;;8.90;99.90;;;;;;5133466;27;20027;-62
2023/01/08 09:59:15;;;;;;;5.35;1.60;;;8.80;99.90;;;;;;5114934;27;20561;-62
2023/01/08 10:01:43;;;;;;;5.38;2.08;;;8.90;99.90;;;;;;5114767;27;20497;-61
2023/01/08 10:04:23;;;;;;;8.73;2.30;;;9.00;99.90;;;;;;5133474;27;20043;-61
2023/01/08 10:06:55;;;;;;;7.53;2.50;;;9.00;99.90;;;;;;5133301;27;20126;-62
2023/01/08 10:09:32;;;;;;;8.45;1.88;;;9.10;99.90;;;;;;5132526;27;20039;-62
2023/01/08 10:12:01;;;;;;;7.95;1.65;;;9.10;99.90;;;;;;5133481;27;20070;-61
2023/01/08 10:14:32;;;;;;;9.95;1.83;;;9.10;99.90;;;;;;5133221;27;20366;-62
2023/01/08 10:17:07;;;;;;;9.85;1.95;;;9.20;99.90;;;;;;5133131;27;20067;-62
2023/01/08 10:19:33;;;;;;;10.43;2.13;;;9.20;99.90;;;;;;5133096;27;20045;-63
2023/01/08 10:21:59;;;;;;;11.48;2.63;;;9.30;99.90;;;;;;5131374;27;20035;-61
2023/01/08 10:24:36;;;;;;;10.63;1.90;;;9.30;99.90;;;;;;5132854;27;20496;-61
2023/01/08 10:27:12;;;;;;;13.85;2.40;;;9.30;99.90;;;;;;5132594;27;20432;-58
2023/01/08 10:29:41;;;;;;;9.32;1.77;;;9.30;99.90;;;;;;5132669;27;20148;-59
2023/01/08 10:32:16;;;;;;;8.32;1.98;;;9.50;99.90;;;;;;5132677;27;20035;-58
2023/01/08 10:34:43;;;;;;;5.60;1.55;;;9.60;99.90;;;;;;5132514;27;20416;-60
2023/01/08 10:37:30;;;;;;;9.07;2.05;;;9.60;99.90;;;;;;5132777;27;20043;-58
2023/01/08 10:40:21;;;;;;;7.43;1.70;;;9.60;99.90;;;;;;5115947;27;20027;-58
2023/01/08 10:42:47;;;;;;;;;;;9.60;99.90;;;;;;5028614;28;20080;-59
2023/01/08 10:45:32;;;;;;;11.85;2.38;;;9.70;99.90;;;;;;5034922;28;19942;-61
2023/01/08 10:48:03;;;;;;;8.20;1.73;;;9.80;99.90;;;;;;5031454;28;20572;-61
2023/01/08 10:50:31;;;;;;;7.13;2.35;;;9.70;99.90;;;;;;5051013;28;20553;-61
2023/01/08 10:52:59;;;;;;;7.53;1.67;;;9.70;99.90;;;;;;5050063;28;20048;-58
2023/01/08 10:55:30;;;;;;;13.45;2.28;;;9.70;99.90;;;;;;5049065;28;20036;-59
2023/01/08 10:58:08;;;;;;;10.10;1.73;;;9.70;99.90;;;;;;5029151;28;20038;-59
2023/01/08 11:00:35;;;;;;;9.20;2.00;;;9.60;99.90;;;;;;5029269;28;20046;-58
2023/01/08 11:03:05;;;;;;;16.95;2.60;;;9.60;99.90;;;;;;5029401;28;20192;-59
2023/01/08 11:05:36;;;;;;;9.02;1.77;;;9.60;99.90;;;;;;5029459;28;20038;-59
2023/01/08 11:08:11;;;;;;;11.38;2.28;;;9.60;99.90;;;;;;5029200;28;20103;-58
2023/01/08 11:10:37;;;;;;;9.80;2.00;;;9.80;99.90;;;;;;5026760;28;20447;-58
2023/01/08 11:13:06;;;;;;;9.70;2.03;;;9.80;99.90;;;;;;5027860;28;20045;-61
2023/01/08 11:15:39;;;;;;;11.18;2.40;;;9.70;99.90;;;;;;5027851;28;20108;-61
2023/01/08 11:18:26;;;;;;;11.93;2.28;;;9.70;99.90;;;;;;5011798;28;20103;-61
2023/01/08 11:20:53;;;;;;;9.32;2.15;;;9.70;99.90;;;;;;5126641;28;20134;-60
2023/01/08 11:23:21;;;;;;;12.32;2.17;;;9.60;99.90;;;;;;5114297;28;20103;-61
2023/01/08 11:26:08;;;;;;;9.13;1.75;;;9.60;99.90;;;;;;5132137;28;20039;-61
2023/01/08 11:29:06;;;;;;;12.13;2.08;;;9.60;99.90;;;;;;5132230;28;20054;-61
2023/01/08 11:31:58;;;;;;;15.40;2.92;;;9.70;99.90;;;;;;5132495;28;20047;-60
2023/01/08 11:34:32;;;;;;;14.20;2.38;;;9.70;99.90;;;;;;5113901;28;20489;-61
2023/01/08 11:37:20;;;;;;;16.08;2.05;;;9.70;99.90;;;;;;5131919;28;20047;-60
2023/01/08 11:39:46;;;;;;;14.05;2.38;;;9.70;99.90;;;;;;5131649;28;20477;-60
2023/01/08 11:42:24;;;;;;;11.00;2.53;;;9.80;99.90;;;;;;5132119;28;20126;-60
2023/01/08 11:45:10;;;;;;;6.68;2.05;;;9.80;99.90;;;;;;5113678;28;20043;-60
2023/01/08 11:48:07;;;;;;;8.10;2.20;;;9.80;99.90;;;;;;5132478;28;20043;-61
2023/01/08 11:50:48;;;;;;;11.77;3.10;;;9.80;99.90;;;;;;5113421;28;20086;-60
2023/01/08 11:53:19;;;;;;;12.02;2.80;;;9.80;99.90;;;;;;5131960;28;20092;-60
2023/01/08 11:56:09;;;;;;;9.38;2.33;;;9.70;99.90;;;;;;5113523;28;20035;-61
2023/01/08 11:59:01;;;;;;;9.90;2.30;;;9.80;99.90;;;;;;5132436;27;20054;-61
2023/01/08 12:01:43;;;;;;;13.98;2.13;;;9.80;99.90;;;;;;5135568;27;20473;-61
2023/01/08 12:04:27;;;;;;;12.98;2.03;;;9.90;99.90;;;;;;5135791;27;20110;-61
2023/01/08 12:07:18;;;;;;;11.75;3.03;;;9.80;99.90;;;;;;5135470;27;20492;-60
2023/01/08 12:09:49;;;;;;;10.68;2.35;;;9.80;99.90;;;;;;5118670;27;20126;-61
2023/01/08 12:12:25;;;;;;;14.10;2.78;;;9.70;99.90;;;;;;5135336;27;20043;-61
2023/01/08 12:15:08;;;;;;;6.80;1.77;;;9.80;99.90;;;;;;5135431;27;20047;-62
2023/01/08 12:17:48;;;;;;;8.68;2.38;;;9.70;99.90;;;;;;5135363;27;20481;-60
2023/01/08 12:20:23;;;;;;;15.75;3.30;;;9.70;99.90;;;;;;5135264;27;20042;-62
2023/01/08 12:23:17;;;;;;;11.48;2.72;;;9.70;99.90;;;;;;5135674;27;20060;-61
2023/01/08 12:26:05;;;;;;;11.20;2.50;;;9.60;99.90;;;;;;5134789;27;20087;-61
2023/01/08 12:28:51;;;;;;;11.43;2.53;;;9.70;99.90;;;;;;5134926;27;20492;-61
2023/01/08 12:31:38;;;;;;;13.15;2.58;;;9.70;99.90;;;;;;5117025;27;20500;-61
2023/01/08 12:34:10;;;;;;;11.57;2.97;;;9.70;99.90;;;;;;5135217;27;20118;-60
2023/01/08 12:36:41;;;;;;;7.65;2.30;;;9.60;99.90;;;;;;5135167;27;20051;-61
2023/01/08 12:39:26;;;;;;;8.20;2.65;;;9.60;99.90;;;;;;5134460;27;20405;-60
2023/01/08 12:41:55;;;;;;;9.73;2.40;;;9.60;99.90;;;;;;5135059;27;20043;-60
2023/01/08 12:44:29;;;;;;;13.43;3.45;;;9.60;99.90;;;;;;5134977;27;20043;-60
2023/01/08 12:47:01;;;;;;;11.68;2.50;;;9.60;99.90;;;;;;5134858;27;20035;-60
2023/01/08 12:50:07;;;;;;;14.93;2.28;;;9.60;99.90;;;;;;5116209;27;20047;-61
2023/01/08 12:52:55;;;;;;;15.40;3.30;;;9.50;99.90;;;;;;5031556;28;20048;-61
2023/01/08 12:55:47;;;;;;;11.52;2.40;;;9.50;99.90;;;;;;5014841;28;20045;-61
2023/01/08 12:58:20;;;;;;;11.95;2.72;;;9.60;99.90;;;;;;5031421;28;20140;-61
2023/01/08 13:00:58;;;;;;;15.88;2.60;;;9.50;99.90;;;;;;5031534;28;20041;-60
2023/01/08 13:03:27;;;;;;;17.55;2.45;;;9.50;99.90;;;;;;5031224;28;20422;-61
2023/01/08 13:06:03;;;;;;;;;;;9.50;99.90;;;;;;5014552;28;20061;-61
2023/01/08 13:08:36;;;;;;;9.35;2.50;;;9.50;99.90;;;;;;5030866;28;19942;-61
2023/01/08 13:11:02;;;;;;;9.80;2.42;;;9.50;99.90;;;;;;5030070;28;20046;-61
2023/01/08 13:13:31;;;;;;;8.13;2.13;;;9.40;99.90;;;;;;5030815;28;20045;-61